Terminal Aerodrome Forecast
Issued by NWS

Home | Current Version | Previous Version | Text Only | Print | Product List | Glossary On
Versions: 1 2 3 4 5 6 7 8 9 10 11 12 13
000
FTUS43 KGRR 291100
TAFAZO
TAF
KAZO 291140Z 2912/3012 19010KT P6SM BKN150
     FM291400 19015G25KT P6SM BKN100
     FM291800 20020G30KT P6SM -SHRA BKN060
     FM292000 20022G32KT 6SM -SHRA BR OVC025
     FM300000 24017G26KT 5SM -DZ BR OVC009
     FM300500 28013G21KT P6SM BKN040=

USA.gov is the U.S. government's official web portal to all federal, state and local government web resources and services.